Time;durP1;ratioP1;P1;durP2;ratioP2;P2;SDS_P1;SDS_P2;PMS_P1;PMS_P2;Temp;Humidity;BMP_temperature;BMP_pressure;BME280_temperature;BME280_humidity;BME280_pressure;Samples;Min_cycle;Max_cycle;Signal;HPM_P1;HPM_P2
2024/03/29 00:00:20;;;;;;;12.38;2.22;;;;;;;7.67;100.00;98946.78;5043017;28;20084;-67
2024/03/29 00:02:45;;;;;;;10.18;2.00;;;;;;;7.67;100.00;98945.88;5044509;28;20094;-69
2024/03/29 00:05:11;;;;;;;11.23;2.22;;;;;;;7.73;100.00;98947.56;5040843;28;20090;-77
2024/03/29 00:07:36;;;;;;;10.45;2.10;;;;;;;7.72;100.00;98937.91;5044304;28;20033;-76
2024/03/29 00:10:01;;;;;;;12.25;2.33;;;;;;;7.72;100.00;98933.56;5041668;28;20116;-67
2024/03/29 00:12:26;;;;;;;12.82;2.17;;;;;;;7.73;100.00;98947.56;5042920;28;20394;-66
2024/03/29 00:14:52;;;;;;;11.60;2.25;;;;;;;7.91;100.00;98935.91;5043194;28;20060;-67
2024/03/29 00:17:18;;;;;;;6.85;1.98;;;;;;;7.82;100.00;98943.03;5042756;28;20431;-69
2024/03/29 00:19:43;;;;;;;8.88;2.00;;;;;;;7.81;100.00;98946.56;5044106;28;20029;-66
2024/03/29 00:22:09;;;;;;;8.23;2.20;;;;;;;7.82;100.00;98957.94;5040238;28;20129;-66
2024/03/29 00:24:34;;;;;;;12.77;2.22;;;;;;;7.83;100.00;98957.94;5044603;28;20080;-71
2024/03/29 00:26:59;;;;;;;10.35;2.20;;;;;;;7.81;100.00;98967.59;5041519;28;20076;-73
2024/03/29 00:29:26;;;;;;;10.98;2.17;;;;;;;7.88;100.00;98959.63;5043708;28;20058;-70
2024/03/29 00:31:52;;;;;;;11.45;2.20;;;;;;;7.82;100.00;98963.19;5042427;28;20475;-68
2024/03/29 00:34:17;;;;;;;12.23;2.15;;;;;;;7.82;100.00;98961.47;5042282;28;20132;-67
2024/03/29 00:36:42;;;;;;;9.50;2.10;;;;;;;7.91;100.00;98956.97;5043846;28;20029;-69
2024/03/29 00:39:11;;;;;;;10.93;2.15;;;;;;;7.91;100.00;98955.19;5040818;28;20091;-73
2024/03/29 00:41:36;;;;;;;11.43;2.10;;;;;;;7.98;100.00;98971.75;5044495;28;20029;-66
2024/03/29 00:44:02;;;;;;;9.23;2.20;;;;;;;7.94;100.00;98957.78;5039400;28;20036;-75
2024/03/29 00:46:28;;;;;;;10.00;2.17;;;;;;;7.94;100.00;98968.31;5041321;28;20037;-66
2024/03/29 00:48:53;;;;;;;11.75;2.22;;;;;;;8.00;100.00;98976.09;5043070;28;20511;-66
2024/03/29 00:51:19;;;;;;;10.43;2.17;;;;;;;8.07;100.00;98973.38;5041219;28;20486;-66
2024/03/29 00:53:44;;;;;;;11.13;2.20;;;;;;;8.10;100.00;98976.84;5041630;28;20037;-66
2024/03/29 00:56:09;;;;;;;12.48;2.10;;;;;;;8.09;100.00;98979.50;5043999;28;20033;-67
2024/03/29 00:58:35;;;;;;;11.27;2.10;;;;;;;7.96;100.00;98987.56;5040656;28;20037;-66
2024/03/29 01:01:00;;;;;;;10.00;2.03;;;;;;;7.94;100.00;98984.09;5043704;28;20029;-66
2024/03/29 01:03:28;;;;;;;11.15;2.10;;;;;;;7.88;100.00;98992.06;5041754;28;20036;-66
2024/03/29 01:05:54;;;;;;;7.20;2.08;;;;;;;7.92;100.00;98975.34;5042669;28;20068;-66
2024/03/29 01:08:20;;;;;;;8.35;2.15;;;;;;;7.87;100.00;98977.19;5042517;28;20068;-66
2024/03/29 01:10:46;;;;;;;6.72;2.00;;;;;;;7.72;100.00;98977.38;5040605;28;20408;-67
2024/03/29 01:13:11;;;;;;;7.05;1.88;;;;;;;7.63;100.00;98984.53;5043665;28;20029;-66
2024/03/29 01:15:36;;;;;;;7.95;2.08;;;;;;;7.57;100.00;98979.34;5040445;28;20037;-70
2024/03/29 01:18:02;;;;;;;10.07;2.20;;;;;;;7.58;100.00;98967.91;5044225;28;20033;-71
2024/03/29 01:20:27;;;;;;;9.88;2.30;;;;;;;7.53;100.00;98963.59;5041128;28;20081;-68
2024/03/29 01:22:53;;;;;;;10.85;2.30;;;;;;;7.48;100.00;98951.41;5042669;28;20064;-66
2024/03/29 01:25:18;;;;;;;10.95;2.08;;;;;;;7.47;100.00;98954.03;5042778;28;20037;-67
2024/03/29 01:27:43;;;;;;;8.43;2.00;;;;;;;7.51;100.00;98947.84;5041310;28;20084;-66
2024/03/29 01:30:09;;;;;;;10.85;2.20;;;;;;;7.50;100.00;98948.75;5043801;28;20504;-67
2024/03/29 01:32:34;;;;;;;9.65;2.20;;;;;;;7.55;100.00;98944.28;5039135;28;20029;-68
2024/03/29 01:35:00;;;;;;;10.98;2.30;;;;;;;7.54;100.00;98937.28;5043552;28;20025;-70
2024/03/29 01:37:25;;;;;;;11.02;2.20;;;;;;;7.54;100.00;98939.91;5041870;28;20151;-70
2024/03/29 01:39:51;;;;;;;11.43;1.95;;;;;;;7.50;100.00;98935.63;5024065;28;20064;-70
2024/03/29 01:42:16;;;;;;;8.73;2.10;;;;;;;7.44;100.00;98919.91;5042571;28;20035;-66
2024/03/29 01:44:42;;;;;;;10.00;2.25;;;;;;;7.46;100.00;98910.25;5040902;28;20040;-66
2024/03/29 01:47:07;;;;;;;11.88;2.35;;;;;;;7.40;100.00;98903.31;5043565;28;20056;-69
2024/03/29 01:49:33;;;;;;;10.80;1.90;;;;;;;7.40;100.00;98902.47;5040484;28;20084;-68
2024/03/29 01:51:59;;;;;;;12.90;2.25;;;;;;;7.38;100.00;98910.34;5046691;28;20037;-69
2024/03/29 01:54:25;;;;;;;7.05;2.00;;;;;;;7.43;100.00;98926.06;5044905;28;20036;-69
2024/03/29 01:56:50;;;;;;;12.52;2.22;;;;;;;7.49;100.00;98915.47;5045615;28;20032;-69
2024/03/29 01:59:18;;;;;;;6.95;2.00;;;;;;;7.48;100.00;98919.88;5046163;28;20032;-68
2024/03/29 02:01:45;;;;;;;10.65;2.22;;;;;;;7.54;100.00;98921.50;5044311;28;20029;-65
2024/03/29 02:04:11;;;;;;;8.38;2.10;;;;;;;7.53;100.00;98925.06;5046568;28;20497;-65
2024/03/29 02:06:38;;;;;;;6.55;2.10;;;;;;;7.57;100.00;98931.13;5044130;28;20060;-65
2024/03/29 02:09:04;;;;;;;8.85;2.17;;;;;;;7.55;100.00;98928.53;5043830;28;20028;-77
2024/03/29 02:11:29;;;;;;;8.82;2.10;;;;;;;7.55;100.00;98925.88;5046406;28;20029;-73
2024/03/29 02:13:56;;;;;;;9.23;2.10;;;;;;;7.55;100.00;98930.28;5045027;28;20028;-66
2024/03/29 02:16:21;;;;;;;10.75;2.17;;;;;;;7.54;100.00;98937.28;5045091;28;20104;-68
2024/03/29 02:18:46;;;;;;;15.00;2.40;;;;;;;7.58;100.00;98951.28;5045730;28;20048;-65
2024/03/29 02:21:12;;;;;;;8.45;2.08;;;;;;;7.70;100.00;98964.25;5042821;28;20033;-65
2024/03/29 02:23:42;;;;;;;5.30;1.90;;;;;;;7.72;100.00;98946.69;5046773;28;20044;-65
2024/03/29 02:26:08;;;;;;;11.73;2.25;;;;;;;7.71;100.00;98944.09;5040231;28;20030;-65
2024/03/29 02:28:33;;;;;;;8.15;2.10;;;;;;;7.71;100.00;98952.84;5046296;28;20041;-74
2024/03/29 02:30:59;;;;;;;10.18;2.20;;;;;;;7.74;100.00;98957.19;5044416;28;20025;-77
2024/03/29 02:33:24;;;;;;;9.98;2.10;;;;;;;7.73;100.00;98948.41;5046255;28;20034;-77
2024/03/29 02:35:50;;;;;;;10.38;2.20;;;;;;;7.78;100.00;98956.28;5045550;28;20029;-77
2024/03/29 02:38:15;;;;;;;9.35;2.03;;;;;;;7.77;100.00;98962.41;5044598;28;20071;-66
2024/03/29 02:40:40;;;;;;;9.68;2.10;;;;;;;7.75;100.00;98954.53;5047281;28;20021;-74
2024/03/29 02:43:06;;;;;;;6.85;2.10;;;;;;;7.83;100.00;98963.22;5047717;28;20029;-78
2024/03/29 02:45:31;;;;;;;10.05;2.30;;;;;;;7.88;100.00;98965.78;5044007;28;20496;-75
2024/03/29 02:47:56;;;;;;;10.20;2.20;;;;;;;7.93;100.00;98997.28;5045127;28;20029;-76
2024/03/29 02:50:22;;;;;;;7.32;2.10;;;;;;;8.10;100.00;98984.72;5044350;28;20036;-65
2024/03/29 02:52:47;;;;;;;5.32;1.88;;;;;;;8.15;100.00;98961.81;5043777;28;20033;-65
2024/03/29 02:55:13;;;;;;;6.57;1.92;;;;;;;8.19;100.00;98967.94;5045801;28;20463;-69
2024/03/29 02:57:39;;;;;;;12.45;1.90;;;;;;;8.24;100.00;98979.22;5042547;28;20092;-67
2024/03/29 03:00:09;;;;;;;9.60;2.00;;;;;;;8.38;100.00;98979.88;5045961;28;20060;-69
2024/03/29 03:02:38;;;;;;;9.68;2.20;;;;;;;8.49;100.00;98992.03;5041599;28;20032;-69
2024/03/29 03:05:05;;;;;;;8.10;1.95;;;;;;;8.52;100.00;98968.31;5045946;28;20361;-66
2024/03/29 03:12:57;;;;;;;8.52;2.00;;;;;;;8.47;100.00;98999.09;5043403;28;20039;-65
2024/03/29 03:15:23;;;;;;;7.32;1.95;;;;;;;8.31;100.00;98999.31;5044209;28;20461;-65
2024/03/29 03:17:48;;;;;;;6.72;1.90;;;;;;;8.16;100.00;98989.03;5044306;28;20032;-65
2024/03/29 03:20:15;;;;;;;6.05;1.80;;;;;;;7.97;100.00;98991.94;5042671;28;20029;-67
2024/03/29 03:22:40;;;;;;;7.95;1.90;;;;;;;7.93;100.00;98984.97;5045729;28;20059;-69
2024/03/29 03:25:06;;;;;;;5.65;1.80;;;;;;;7.94;100.00;98999.00;5042039;28;20104;-68
2024/03/29 03:27:31;;;;;;;7.00;1.92;;;;;;;7.88;100.00;98994.72;5045046;28;20031;-66
2024/03/29 03:29:57;;;;;;;7.15;2.00;;;;;;;7.58;100.00;98975.81;5042993;28;20053;-69
2024/03/29 03:32:22;;;;;;;8.93;2.20;;;;;;;7.52;100.00;98982.91;5043697;28;20021;-68
2024/03/29 03:34:47;;;;;;;8.30;1.65;;;;;;;7.57;100.00;98981.09;5044348;28;20087;-65
2024/03/29 03:37:13;;;;;;;6.35;1.88;;;;;;;7.57;100.00;98968.81;5042316;28;20037;-68
2024/03/29 03:39:38;;;;;;;6.43;2.00;;;;;;;7.59;100.00;98976.69;5045115;28;20028;-66
2024/03/29 03:42:04;;;;;;;7.13;1.90;;;;;;;7.59;100.00;98987.22;5042019;28;20393;-66
2024/03/29 03:44:29;;;;;;;9.38;2.10;;;;;;;7.44;100.00;98980.38;5044579;28;20029;-66
2024/03/29 03:46:55;;;;;;;6.57;1.90;;;;;;;7.29;100.00;98984.06;5042847;28;20033;-67
2024/03/29 03:49:20;;;;;;;4.32;1.90;;;;;;;7.19;100.00;98980.66;5042280;28;20033;-66
2024/03/29 03:51:46;;;;;;;5.72;2.08;;;;;;;7.16;100.00;98980.69;5044003;28;20036;-68
2024/03/29 03:54:11;;;;;;;8.30;2.00;;;;;;;7.05;100.00;98982.56;5041979;28;20131;-65
2024/03/29 03:56:36;;;;;;;6.57;2.00;;;;;;;7.09;100.00;99002.69;5046040;28;20487;-66
2024/03/29 03:59:02;;;;;;;9.18;2.00;;;;;;;7.06;100.00;98986.94;5041712;28;20483;-66
2024/03/29 04:01:27;;;;;;;4.63;1.80;;;;;;;7.27;100.00;98997.22;5043122;28;20025;-71
2024/03/29 04:03:52;;;;;;;8.02;1.95;;;;;;;7.26;100.00;99000.72;5039594;28;20028;-72
2024/03/29 04:06:18;;;;;;;8.95;2.08;;;;;;;7.18;100.00;99007.84;5044107;28;20040;-69
2024/03/29 04:08:46;;;;;;;6.20;2.00;;;;;;;7.08;100.00;99012.31;5042439;28;20476;-67
2024/03/29 04:11:12;;;;;;;5.88;2.00;;;;;;;6.88;100.00;99025.66;5045137;28;20064;-66
2024/03/29 04:13:38;;;;;;;9.40;2.10;;;;;;;6.67;100.00;99011.00;5041639;28;20440;-78
2024/03/29 04:16:05;;;;;;;6.45;1.98;;;;;;;6.54;100.00;99019.81;5045796;28;20025;-76
2024/03/29 04:18:30;;;;;;;7.68;1.90;;;;;;;6.48;100.00;99043.50;5042501;28;20037;-76
2024/03/29 04:21:03;;;;;;;6.97;2.10;;;;;;;6.39;100.00;99065.44;5043877;28;20033;-77
2024/03/29 04:23:29;;;;;;;8.05;2.20;;;;;;;6.33;100.00;99031.38;5042616;28;20112;-77
2024/03/29 04:25:56;;;;;;;7.13;2.00;;;;;;;6.29;100.00;99056.75;5043805;28;20112;-76
2024/03/29 04:28:21;;;;;;;10.18;2.20;;;;;;;6.18;100.00;99042.84;5043121;28;20438;-68
2024/03/29 04:30:57;;;;;;;9.35;2.30;;;;;;;6.09;100.00;99034.16;5042765;28;20029;-69
2024/03/29 04:33:23;;;;;;;9.18;2.10;;;;;;;6.04;100.00;99037.69;5009954;28;20563;-68
2024/03/29 04:36:03;;;;;;;9.82;2.30;;;;;;;6.01;100.00;99050.81;5042427;28;20024;-65
2024/03/29 04:38:28;;;;;;;11.90;2.40;;;;;;;5.97;100.00;99060.47;5042352;28;20079;-67
2024/03/29 04:40:55;;;;;;;11.05;2.17;;;;;;;5.96;100.00;99060.44;5043025;28;20029;-77
2024/03/29 04:43:28;;;;;;;13.43;2.40;;;;;;;5.94;100.00;99053.47;5043251;28;20480;-77
2024/03/29 04:46:11;;;;;;;10.07;2.35;;;;;;;5.92;100.00;99063.06;5042888;28;20103;-74
2024/03/29 04:48:41;;;;;;;7.95;2.20;;;;;;;5.88;100.00;99057.84;5035671;28;20029;-73
2024/03/29 04:51:07;;;;;;;12.10;2.22;;;;;;;5.84;100.00;99046.50;5043175;28;20090;-76
2024/03/29 04:53:32;;;;;;;13.15;2.53;;;;;;;5.85;100.00;99056.09;5041452;28;20038;-76
2024/03/29 04:55:58;;;;;;;10.57;2.22;;;;;;;5.86;100.00;99067.47;5043013;28;20125;-65
2024/03/29 04:58:28;;;;;;;11.20;2.33;;;;;;;5.80;100.00;99050.03;5042434;28;20104;-64
2024/03/29 05:00:53;;;;;;;6.05;2.10;;;;;;;5.83;100.00;99063.13;5042852;28;20061;-66
2024/03/29 05:03:19;;;;;;;9.18;2.20;;;;;;;5.76;100.00;99058.78;5042909;28;20021;-77
2024/03/29 05:05:45;;;;;;;8.98;2.20;;;;;;;5.78;100.00;99051.75;5041322;28;20389;-74
2024/03/29 05:08:11;;;;;;;8.55;2.17;;;;;;;5.76;100.00;99046.53;5044613;28;20051;-75
2024/03/29 05:10:37;;;;;;;9.00;2.20;;;;;;;5.74;100.00;99045.69;5039609;28;20030;-76
2024/03/29 05:13:03;;;;;;;8.57;2.30;;;;;;;5.73;100.00;99045.69;5043716;28;20047;-77
2024/03/29 05:15:28;;;;;;;10.93;2.45;;;;;;;5.73;100.00;99038.69;5041667;28;20033;-77
2024/03/29 05:17:54;;;;;;;10.02;2.38;;;;;;;5.76;100.00;99050.91;5042441;28;20040;-79
2024/03/29 05:20:19;;;;;;;8.98;2.20;;;;;;;5.69;100.00;99050.06;5042997;28;20104;-72
2024/03/29 05:22:45;;;;;;;9.25;2.40;;;;;;;5.69;100.00;99057.91;5041253;28;20033;-72
2024/03/29 05:25:10;;;;;;;10.27;2.50;;;;;;;5.68;100.00;99052.69;5044960;28;21025;-64
2024/03/29 05:27:35;;;;;;;10.40;2.38;;;;;;;5.65;100.00;99040.50;5040533;28;20037;-65
2024/03/29 05:30:02;;;;;;;9.20;2.45;;;;;;;5.68;100.00;99032.59;5046832;28;20052;-68
2024/03/29 05:32:28;;;;;;;12.90;2.53;;;;;;;5.72;100.00;99030.81;5045470;28;20033;-65
2024/03/29 05:34:54;;;;;;;10.45;2.47;;;;;;;5.71;100.00;99021.25;5046234;28;20063;-65
2024/03/29 05:37:19;;;;;;;9.45;2.40;;;;;;;5.71;100.00;99016.00;5045062;28;20048;-65
2024/03/29 05:39:44;;;;;;;11.90;2.50;;;;;;;5.72;100.00;99025.59;5043359;28;20029;-64
2024/03/29 05:42:10;;;;;;;9.48;2.40;;;;;;;5.73;100.00;99024.72;5047753;28;20033;-69
2024/03/29 05:44:38;;;;;;;9.15;2.60;;;;;;;5.73;100.00;99029.97;5044102;28;20029;-71
2024/03/29 05:47:07;;;;;;;10.48;2.50;;;;;;;5.72;100.00;99043.94;5046996;28;20029;-69
2024/03/29 05:49:33;;;;;;;8.85;2.50;;;;;;;5.70;100.00;99046.56;5044626;28;20060;-67
2024/03/29 05:51:58;;;;;;;10.30;2.50;;;;;;;5.70;100.00;99050.94;5046372;28;20037;-69
2024/03/29 05:54:24;;;;;;;11.70;2.70;;;;;;;5.65;100.00;99042.22;5045500;28;20040;-65
2024/03/29 05:56:50;;;;;;;11.48;2.60;;;;;;;5.69;100.00;99054.44;5045354;28;20030;-66
2024/03/29 05:59:15;;;;;;;10.48;2.70;;;;;;;5.72;100.00;99057.03;5045316;28;20040;-65
2024/03/29 06:01:40;;;;;;;12.10;2.80;;;;;;;5.74;100.00;99053.53;5043615;28;20084;-65
2024/03/29 06:04:13;;;;;;;9.15;2.63;;;;;;;5.77;100.00;99055.28;5045901;28;20063;-69
2024/03/29 06:06:39;;;;;;;13.20;2.85;;;;;;;5.78;100.00;99070.13;5039816;28;20033;-69
2024/03/29 06:09:04;;;;;;;10.20;2.75;;;;;;;5.79;100.00;99079.75;5046687;28;20495;-67
2024/03/29 06:11:30;;;;;;;10.75;2.90;;;;;;;5.77;100.00;99073.66;5044745;28;20033;-68
2024/03/29 06:19:08;;;;;;;9.98;2.63;;;;;;;5.78;100.00;99092.84;5039916;28;20170;-67
2024/03/29 06:21:40;;;;;;;11.43;2.90;;;;;;;5.79;100.00;99085.00;5046564;28;20029;-65
2024/03/29 06:24:07;;;;;;;8.97;2.73;;;;;;;5.79;100.00;99084.13;5043361;28;20044;-70
2024/03/29 06:26:33;;;;;;;10.52;2.85;;;;;;;5.83;100.00;99086.72;5046046;28;20024;-66
2024/03/29 06:29:00;;;;;;;11.52;3.05;;;;;;;5.85;100.00;99086.72;5044173;28;20492;-67
2024/03/29 06:31:26;;;;;;;10.50;2.97;;;;;;;5.84;100.00;99083.22;5043927;28;20063;-66
2024/03/29 06:33:51;;;;;;;9.07;2.90;;;;;;;5.88;100.00;99084.97;5045043;28;20119;-65
2024/03/29 06:36:17;;;;;;;11.80;2.90;;;;;;;5.89;100.00;99085.81;5044028;28;20033;-66
2024/03/29 06:38:42;;;;;;;12.45;3.00;;;;;;;5.91;100.00;99087.56;5046309;28;20079;-68
2024/03/29 06:41:07;;;;;;;11.65;3.03;;;;;;;5.96;100.00;99082.28;5041647;28;20029;-69
2024/03/29 06:43:33;;;;;;;11.20;3.00;;;;;;;5.99;100.00;99073.59;5046005;28;20025;-66
2024/03/29 06:45:58;;;;;;;11.07;3.05;;;;;;;6.03;100.00;99070.03;5043942;28;20033;-67
2024/03/29 06:48:24;;;;;;;11.10;2.90;;;;;;;6.01;100.00;99056.94;5044439;28;20025;-65
2024/03/29 06:50:49;;;;;;;12.05;2.97;;;;;;;6.08;100.00;99060.41;5045284;28;20387;-65
2024/03/29 06:53:15;;;;;;;11.82;3.10;;;;;;;6.10;100.00;99056.00;5043116;28;20080;-65
2024/03/29 06:55:41;;;;;;;12.40;3.08;;;;;;;6.14;100.00;99049.88;5045924;28;20021;-65
2024/03/29 06:58:06;;;;;;;12.43;2.83;;;;;;;6.18;100.00;99079.59;5041319;28;20064;-69
2024/03/29 07:00:32;;;;;;;14.50;2.90;;;;;;;6.19;100.00;99082.22;5044064;28;20075;-66
2024/03/29 07:02:57;;;;;;;15.25;3.35;;;;;;;6.22;100.00;99070.81;5043853;28;20067;-65
2024/03/29 07:05:23;;;;;;;15.95;3.25;;;;;;;6.27;100.00;99082.16;5044444;28;20451;-65
2024/03/29 07:07:48;;;;;;;16.23;3.20;;;;;;;6.36;100.00;99078.59;5045058;28;20461;-75
2024/03/29 07:10:13;;;;;;;15.95;3.28;;;;;;;6.40;100.00;99069.81;5043211;28;20036;-74
2024/03/29 07:12:39;;;;;;;17.73;4.15;;;;;;;6.50;100.00;99068.00;5045864;28;20029;-67
2024/03/29 07:15:05;;;;;;;16.67;3.50;;;;;;;6.63;100.00;99078.41;5042714;28;20033;-67
2024/03/29 07:17:30;;;;;;;15.48;3.30;;;;;;;6.61;100.00;99079.28;5045197;28;20030;-74
2024/03/29 07:19:55;;;;;;;13.80;3.10;;;;;;;6.59;100.00;99092.44;5044268;28;20068;-76
2024/03/29 07:22:21;;;;;;;13.18;2.90;;;;;;;6.61;100.00;99098.56;5043699;28;20092;-76
2024/03/29 07:24:46;;;;;;;13.68;2.90;;;;;;;6.57;100.00;99104.72;5045265;28;20427;-67
2024/03/29 07:27:14;;;;;;;14.05;2.90;;;;;;;6.61;100.00;99110.78;5042298;28;20029;-65
2024/03/29 07:29:40;;;;;;;15.63;3.20;;;;;;;6.63;100.00;99109.03;5045113;28;20045;-65
2024/03/29 07:32:05;;;;;;;13.93;2.90;;;;;;;6.61;100.00;99110.78;5042369;28;20041;-66
2024/03/29 07:34:30;;;;;;;14.95;2.97;;;;;;;6.60;100.00;99112.56;5044434;28;20021;-69
2024/03/29 07:36:56;;;;;;;12.77;2.90;;;;;;;6.53;100.00;99097.72;5043299;28;20055;-69
2024/03/29 07:39:22;;;;;;;11.57;2.90;;;;;;;6.52;100.00;99103.84;5043247;28;20072;-67
2024/03/29 07:41:48;;;;;;;12.02;2.80;;;;;;;6.47;100.00;99113.53;5043246;28;20036;-66
2024/03/29 07:44:13;;;;;;;12.70;2.70;;;;;;;6.41;100.00;99117.06;5041813;28;20034;-66
2024/03/29 07:46:39;;;;;;;11.68;2.80;;;;;;;6.38;100.00;99114.47;5027412;28;20036;-66
2024/03/29 07:49:05;;;;;;;12.73;2.70;;;;;;;6.44;100.00;99126.69;5040142;28;20108;-67
2024/03/29 07:51:31;;;;;;;10.98;2.83;;;;;;;6.50;100.00;99126.63;5042955;28;20088;-66
2024/03/29 07:53:56;;;;;;;7.90;2.60;;;;;;;6.52;100.00;99106.47;5042983;28;20038;-65
2024/03/29 07:56:22;;;;;;;9.45;2.63;;;;;;;6.62;100.00;99108.16;5042789;28;20030;-68
2024/03/29 07:58:52;;;;;;;9.25;2.60;;;;;;;6.72;100.00;99113.34;5042939;28;20398;-65
2024/03/29 08:01:21;;;;;;;10.65;2.65;;;;;;;6.77;100.00;99103.66;5042489;28;20033;-66
2024/03/29 08:03:47;;;;;;;8.40;2.65;;;;;;;6.85;100.00;99107.13;5044393;28;20053;-66
2024/03/29 08:06:12;;;;;;;9.80;2.65;;;;;;;6.98;100.00;99093.00;5041165;28;20037;-68
2024/03/29 08:08:38;;;;;;;8.98;2.60;;;;;;;7.08;100.00;99088.53;5043637;28;20044;-65
2024/03/29 08:11:03;;;;;;;8.43;2.70;;;;;;;7.13;100.00;99094.59;5040798;28;20060;-68
2024/03/29 08:13:28;;;;;;;10.23;2.70;;;;;;;7.20;100.00;99103.31;5043766;28;20044;-67
2024/03/29 08:15:58;;;;;;;10.18;2.80;;;;;;;7.24;100.00;99107.66;5043163;28;20083;-65
2024/03/29 08:18:24;;;;;;;11.00;2.80;;;;;;;7.31;100.00;99092.66;5041481;28;20025;-66
2024/03/29 08:20:49;;;;;;;10.90;2.70;;;;;;;7.39;100.00;99085.59;5044078;28;20063;-65
2024/03/29 08:23:14;;;;;;;7.72;2.50;;;;;;;7.51;100.00;99084.56;5041544;28;20476;-65
2024/03/29 08:25:40;;;;;;;7.70;2.47;;;;;;;7.65;100.00;99097.59;5044453;28;20471;-67
2024/03/29 08:28:05;;;;;;;7.18;2.50;;;;;;;7.82;100.00;99105.25;5041608;28;20056;-68
2024/03/29 08:30:34;;;;;;;8.07;2.42;;;;;;;8.14;100.00;99101.34;5043463;28;20037;-67
2024/03/29 08:33:02;;;;;;;9.85;2.40;;;;;;;8.25;100.00;99103.84;5041986;28;20474;-69
2024/03/29 08:35:32;;;;;;;8.38;2.47;;;;;;;8.49;100.00;99107.91;5043071;28;20041;-67
2024/03/29 08:37:57;;;;;;;5.85;2.17;;;;;;;8.57;100.00;99094.66;5042411;28;20514;-67
2024/03/29 08:40:23;;;;;;;6.80;2.33;;;;;;;8.57;100.00;99078.84;5042192;28;20065;-72
2024/03/29 08:42:49;;;;;;;6.40;2.40;;;;;;;8.87;100.00;99083.63;5043559;28;20048;-70
2024/03/29 08:45:14;;;;;;;9.13;2.75;;;;;;;8.57;100.00;99090.25;5041222;28;20132;-70
2024/03/29 08:47:40;;;;;;;7.95;2.65;;;;;;;8.35;100.00;99089.66;5044238;28;20079;-72
2024/03/29 08:50:05;;;;;;;12.00;2.80;;;;;;;8.28;100.00;99104.66;5041403;28;20087;-66
2024/03/29 08:52:31;;;;;;;10.63;2.80;;;;;;;8.26;100.00;99109.09;5043360;28;20037;-66
2024/03/29 08:54:56;;;;;;;9.23;2.80;;;;;;;8.22;100.00;99125.81;5042251;28;20025;-68
2024/03/29 08:57:22;;;;;;;8.93;2.90;;;;;;;8.10;100.00;99126.00;5041077;28;20453;-67
2024/03/29 08:59:47;;;;;;;8.20;3.10;;;;;;;8.06;100.00;99116.38;5044114;28;20103;-68
2024/03/29 09:02:12;;;;;;;10.82;3.08;;;;;;;8.17;100.00;99117.13;5045376;28;20481;-67
2024/03/29 09:04:38;;;;;;;9.13;2.92;;;;;;;8.23;100.00;99095.97;5048524;28;20377;-66
2024/03/29 09:07:03;;;;;;;10.98;3.00;;;;;;;8.42;100.00;99106.22;5045914;28;20033;-75
2024/03/29 09:09:29;;;;;;;12.80;3.30;;;;;;;8.79;100.00;99108.34;5047035;28;20391;-75
2024/03/29 09:11:55;;;;;;;10.68;3.00;;;;;;;8.95;100.00;99117.72;5047142;28;20373;-76
2024/03/29 09:14:21;;;;;;;10.85;3.03;;;;;;;9.39;100.00;99117.84;5046525;28;20079;-76
2024/03/29 09:16:49;;;;;;;11.15;3.10;;;;;;;9.22;100.00;99115.53;5048634;28;20033;-67
2024/03/29 09:19:15;;;;;;;12.05;3.28;;;;;;;9.04;100.00;99107.06;5045665;28;20022;-76
2024/03/29 09:21:40;;;;;;;12.45;3.40;;;;;;;9.11;100.00;99117.50;5048848;28;20035;-70
2024/03/29 09:24:06;;;;;;;10.82;3.20;;;;;;;9.01;100.00;99125.56;5045493;28;20430;-70
2024/03/29 09:26:32;;;;;;;11.02;3.83;;;;;;;9.12;100.00;99119.25;5045886;28;20033;-75
2024/03/29 09:28:57;;;;;;;12.63;3.28;;;;;;;9.18;100.00;99133.16;5045743;28;20099;-70
2024/03/29 09:31:22;;;;;;;11.10;3.25;;;;;;;9.28;100.00;99112.78;5045832;28;20069;-66
2024/03/29 09:33:52;;;;;;;9.10;3.28;;;;;;;9.40;100.00;99131.03;5045690;28;20059;-67
2024/03/29 09:36:21;;;;;;;10.65;3.20;;;;;;;9.67;100.00;99143.72;5044721;28;20064;-70
2024/03/29 09:38:46;;;;;;;9.77;3.30;;;;;;;9.93;100.00;99148.50;5047309;28;20024;-69
2024/03/29 09:41:17;;;;;;;9.38;3.20;;;;;;;10.11;100.00;99139.34;5044382;28;20026;-66
2024/03/29 09:43:46;;;;;;;10.60;3.20;;;;;;;10.06;100.00;99147.38;5040595;28;20037;-72
2024/03/29 09:46:12;;;;;;;9.57;3.15;;;;;;;10.13;100.00;99148.09;5040191;28;20037;-67
2024/03/29 09:48:40;;;;;;;9.50;2.83;;;;;;;10.18;100.00;99148.88;5047750;28;20035;-66
2024/03/29 09:51:07;;;;;;;10.00;3.05;;;;;;;10.18;100.00;99153.28;5044343;28;20037;-67
2024/03/29 09:53:36;;;;;;;9.15;2.97;;;;;;;10.30;100.00;99155.66;5046457;28;20026;-67
2024/03/29 09:56:06;;;;;;;12.88;3.22;;;;;;;10.39;100.00;99166.06;5043717;28;20040;-65
2024/03/29 09:58:32;;;;;;;9.48;3.17;;;;;;;10.53;100.00;99165.78;5046159;28;20021;-66
2024/03/29 10:00:58;;;;;;;9.75;2.90;;;;;;;10.52;100.00;99161.38;5045089;28;20021;-67
2024/03/29 10:03:28;;;;;;;9.98;3.00;;;;;;;10.83;100.00;99165.97;5045078;28;20052;-66
2024/03/29 10:05:56;;;;;;;8.75;3.08;;;;;;;11.32;100.00;99153.34;5045462;28;20361;-67
2024/03/29 10:08:22;;;;;;;9.65;3.10;;;;;;;11.39;100.00;99154.91;5043192;28;20534;-67
2024/03/29 10:10:48;;;;;;;8.65;2.85;;;;;;;11.43;100.00;99151.28;5046166;28;20464;-67
2024/03/29 10:13:14;;;;;;;8.30;2.83;;;;;;;11.61;100.00;99133.19;5043419;28;20026;-67
2024/03/29 10:15:43;;;;;;;7.70;2.72;;;;;;;11.67;100.00;99139.16;5046878;28;20083;-65
2024/03/29 10:18:09;;;;;;;7.60;2.72;;;;;;;11.67;100.00;99133.88;5043778;28;20083;-66
2024/03/29 10:20:35;;;;;;;8.15;2.72;;;;;;;12.25;100.00;99124.38;5046133;28;20036;-66
2024/03/29 10:23:03;;;;;;;10.40;2.85;;;;;;;13.16;100.00;99135.59;5044471;28;20024;-67
2024/03/29 10:25:32;;;;;;;8.18;2.70;;;;;;;13.24;100.00;99138.88;5045284;28;20519;-67
2024/03/29 10:27:58;;;;;;;9.43;2.60;;;;;;;13.07;100.00;99146.53;5044892;28;20036;-67
2024/03/29 10:30:25;;;;;;;9.88;2.67;;;;;;;12.71;100.00;99150.31;5044221;28;20041;-70
2024/03/29 10:32:50;;;;;;;8.00;2.60;;;;;;;12.71;100.00;99154.75;5046032;28;20387;-70
2024/03/29 10:35:15;;;;;;;6.53;2.40;;;;;;;12.91;100.00;99168.22;5043219;28;20034;-66
2024/03/29 10:37:43;;;;;;;7.28;2.40;;;;;;;13.48;100.00;99141.63;5046750;28;20043;-66
2024/03/29 10:40:09;;;;;;;5.45;2.20;;;;;;;13.33;100.00;99143.00;5042907;28;20025;-67
2024/03/29 10:42:38;;;;;;;5.13;2.30;;;;;;;13.07;100.00;99149.19;5044409;28;20361;-67
2024/03/29 10:45:06;;;;;;;8.85;2.40;;;;;;;12.88;100.00;99159.53;5043528;28;20070;-72
2024/03/29 10:47:32;;;;;;;8.27;2.30;;;;;;;12.79;100.00;99152.72;5045072;28;20029;-70
2024/03/29 10:49:58;;;;;;;5.93;2.20;;;;;;;13.47;100.00;99139.03;5044719;28;20060;-68
2024/03/29 10:52:25;;;;;;;4.20;2.13;;;;;;;13.38;100.00;99157.03;5042669;28;20030;-67
2024/03/29 10:54:51;;;;;;;5.38;2.20;;;;;;;13.13;100.00;99186.13;5045730;28;20029;-68
2024/03/29 10:57:27;;;;;;;6.07;2.20;;;;;;;12.90;100.00;99182.44;5041886;28;20087;-67
2024/03/29 11:00:11;;;;;;;5.25;2.00;;;;;;;12.68;100.00;99199.91;5044882;28;20483;-66
2024/03/29 11:02:48;;;;;;;6.00;2.10;;;;;;;12.40;100.00;99200.72;5040342;28;20454;-67
2024/03/29 11:05:15;;;;;;;3.88;2.10;;;;;;;12.38;100.00;99189.31;5044365;28;20419;-67
2024/03/29 11:07:42;;;;;;;6.57;2.20;;;;;;;12.26;100.00;99195.84;5043923;28;20025;-65
2024/03/29 11:10:30;;;;;;;6.82;2.20;;;;;;;12.66;100.00;99193.78;5044599;28;20384;-65
2024/03/29 11:13:11;;;;;;;4.72;2.10;;;;;;;13.46;100.00;99188.63;5038382;28;20041;-66
2024/03/29 11:15:38;;;;;;;4.75;2.17;;;;;;;13.85;100.00;99148.31;5044527;28;20055;-66
2024/03/29 11:18:04;;;;;;;6.28;2.20;;;;;;;14.38;100.00;99133.09;5043344;28;20419;-67
2024/03/29 11:20:39;;;;;;;5.47;2.10;;;;;;;14.89;100.00;99145.28;5045305;28;20025;-64
2024/03/29 11:23:11;;;;;;;3.50;2.08;;;;;;;14.21;100.00;99136.38;5042686;28;20028;-65
2024/03/29 11:25:42;;;;;;;5.70;2.25;;;;;;;14.17;100.00;99153.38;5043673;28;20032;-66
2024/03/29 11:28:08;;;;;;;4.85;2.20;;;;;;;13.72;100.00;99155.84;5043608;28;20029;-69
2024/03/29 11:30:46;;;;;;;10.15;2.30;;;;;;;13.68;100.00;99172.81;5044201;28;20497;-68
2024/03/29 11:33:30;;;;;;;5.68;2.10;;;;;;;14.37;100.00;99171.22;5044365;28;20037;-70
2024/03/29 11:35:57;;;;;;;4.43;1.95;;;;;;;15.16;100.00;99177.03;5039253;28;20061;-76